createdAt,value
2023-04-16T00:01:29.669Z,101376.81
2023-04-16T00:03:58.351Z,101377.73
2023-04-16T00:06:27.865Z,101379.91
2023-04-16T00:08:56.180Z,101382.51
2023-04-16T00:11:24.824Z,101382.77
2023-04-16T00:13:54.235Z,101382.10
2023-04-16T00:16:23.307Z,101384.79
2023-04-16T00:18:52.063Z,101384.86
2023-04-16T00:21:20.827Z,101385.28
2023-04-16T00:23:49.399Z,101387.22
2023-04-16T00:26:17.857Z,101389.96
2023-04-16T00:28:46.681Z,101387.77
2023-04-16T00:31:15.234Z,101389.39
2023-04-16T00:33:44.742Z,101391.33
2023-04-16T00:36:14.223Z,101390.49
2023-04-16T00:38:43.133Z,101391.13
2023-04-16T00:41:11.613Z,101391.41
2023-04-16T00:43:40.129Z,101390.96
2023-04-16T00:46:08.732Z,101391.00
2023-04-16T00:48:38.308Z,101385.52
2023-04-16T00:51:07.380Z,101385.40
2023-04-16T00:53:36.855Z,101381.06
2023-04-16T00:56:07.641Z,101382.08
2023-04-16T00:58:37.331Z,101382.82
2023-04-16T01:01:05.946Z,101386.64
2023-04-16T01:03:39.988Z,101385.33
2023-04-16T01:06:08.511Z,101384.93
2023-04-16T01:08:36.989Z,101387.53
2023-04-16T01:11:05.884Z,101386.92
2023-04-16T01:13:39.291Z,101387.70
2023-04-16T01:16:09.480Z,101390.72
2023-04-16T01:18:38.597Z,101390.92
2023-04-16T01:21:07.078Z,101389.05
2023-04-16T01:23:36.606Z,101387.99
2023-04-16T01:26:05.183Z,101389.67
2023-04-16T01:28:34.058Z,101391.22
2023-04-16T01:31:02.551Z,101387.05
2023-04-16T01:33:43.937Z,101392.48
2023-04-16T01:36:13.942Z,101390.77
2023-04-16T01:38:42.752Z,101392.56
2023-04-16T01:41:11.218Z,101396.35
2023-04-16T01:43:40.275Z,101394.93
2023-04-16T01:46:18.557Z,101392.62
2023-04-16T01:48:47.445Z,101399.80
2023-04-16T01:51:15.833Z,101396.58
2023-04-16T01:53:44.281Z,101394.26
2023-04-16T01:56:12.957Z,101401.10
2023-04-16T01:58:42.966Z,101402.09
2023-04-16T02:01:11.815Z,101400.21
2023-04-16T02:03:41.320Z,101402.11
2023-04-16T02:06:10.053Z,101403.66
2023-04-16T02:08:38.736Z,101401.77
2023-04-16T02:11:07.714Z,101401.59
2023-04-16T02:13:37.332Z,101403.76
2023-04-16T02:16:06.892Z,101402.78
2023-04-16T02:18:56.541Z,101403.05
2023-04-16T02:21:26.120Z,101400.58
2023-04-16T02:23:54.705Z,101403.04
2023-04-16T02:26:29.436Z,101400.48
2023-04-16T02:29:00.379Z,101396.71
2023-04-16T02:31:34.259Z,101397.41
2023-04-16T02:34:02.963Z,101402.00
2023-04-16T02:36:32.273Z,101402.92
2023-04-16T02:39:00.752Z,101403.68
2023-04-16T02:41:29.226Z,101403.38
2023-04-16T02:43:57.809Z,101407.57
2023-04-16T02:46:26.919Z,101412.76
2023-04-16T02:48:55.639Z,101410.48
2023-04-16T02:51:24.201Z,101414.19
2023-04-16T02:53:52.766Z,101415.95
2023-04-16T02:56:21.449Z,101413.77
2023-04-16T02:58:50.853Z,101415.95
2023-04-16T03:01:19.486Z,101415.69
2023-04-16T03:03:48.057Z,101415.91
2023-04-16T03:06:17.115Z,101414.85
2023-04-16T03:08:46.322Z,101419.95
2023-04-16T03:11:15.003Z,101419.98
2023-04-16T03:13:44.143Z,101418.60
2023-04-16T03:16:12.941Z,101418.81
2023-04-16T03:18:41.575Z,101415.98
2023-04-16T03:21:09.942Z,101415.65
2023-04-16T03:23:39.630Z,101414.64
2023-04-16T03:26:08.143Z,101411.52
2023-04-16T03:28:37.581Z,101407.02
2023-04-16T03:31:06.315Z,101404.67
2023-04-16T03:33:35.435Z,101401.68
2023-04-16T03:36:05.029Z,101400.34
2023-04-16T03:38:35.915Z,101400.64
2023-04-16T03:41:07.316Z,101395.89
2023-04-16T03:43:36.312Z,101389.16
2023-04-16T03:46:04.955Z,101391.52
2023-04-16T03:48:33.791Z,101390.16
2023-04-16T03:51:02.702Z,101388.60
2023-04-16T03:53:31.572Z,101385.16
2023-04-16T03:56:00.428Z,101383.84
2023-04-16T03:58:29.496Z,101384.69
2023-04-16T04:00:58.653Z,101383.77
2023-04-16T04:03:28.524Z,101377.09
2023-04-16T04:05:57.488Z,101378.98
2023-04-16T04:08:29.132Z,101378.17
2023-04-16T04:10:57.920Z,101384.30
2023-04-16T04:13:27.522Z,101387.96
2023-04-16T04:15:56.108Z,101388.60
2023-04-16T04:18:24.887Z,101396.72
2023-04-16T04:20:53.251Z,101396.34
2023-04-16T04:23:25.010Z,101400.98
2023-04-16T04:25:53.924Z,101400.94
2023-04-16T04:28:22.563Z,101403.39
2023-04-16T04:30:51.173Z,101406.28
2023-04-16T04:33:19.973Z,101406.80
2023-04-16T04:35:49.469Z,101406.38
2023-04-16T04:38:20.404Z,101406.06
2023-04-16T04:40:49.446Z,101403.36
2023-04-16T04:43:19.322Z,101399.27
2023-04-16T04:45:49.550Z,101405.98
2023-04-16T04:48:18.659Z,101405.27
2023-04-16T04:50:47.522Z,101408.09
2023-04-16T04:53:17.436Z,101406.05
2023-04-16T04:55:45.920Z,101404.77
2023-04-16T04:58:14.808Z,101406.98
2023-04-16T05:00:43.737Z,101409.34
2023-04-16T05:03:13.009Z,101407.41
2023-04-16T05:05:41.971Z,101410.38
2023-04-16T05:08:10.787Z,101410.70
2023-04-16T05:10:39.293Z,101412.13
2023-04-16T05:13:08.183Z,101409.70
2023-04-16T05:15:36.759Z,101415.48
2023-04-16T05:18:05.729Z,101411.36
2023-04-16T05:20:34.372Z,101411.75
2023-04-16T05:23:02.825Z,101418.95
2023-04-16T05:25:31.590Z,101408.21
2023-04-16T05:28:00.276Z,101410.80
2023-04-16T05:30:28.928Z,101413.86
2023-04-16T05:32:57.826Z,101407.45
2023-04-16T05:35:26.978Z,101408.38
2023-04-16T05:37:55.731Z,101410.25
2023-04-16T05:40:24.324Z,101418.73
2023-04-16T05:42:52.796Z,101412.56
2023-04-16T05:45:21.073Z,101409.10
2023-04-16T05:47:49.564Z,101419.27
2023-04-16T05:50:18.033Z,101418.56
2023-04-16T05:52:46.774Z,101417.11
2023-04-16T05:55:15.554Z,101418.78
2023-04-16T05:57:43.918Z,101427.30
2023-04-16T06:00:13.302Z,101420.37
2023-04-16T06:02:42.032Z,101424.73
2023-04-16T06:05:10.859Z,101419.31
2023-04-16T06:07:39.624Z,101424.93
2023-04-16T06:10:08.953Z,101429.18
2023-04-16T06:12:37.674Z,101430.47
2023-04-16T06:15:06.708Z,101428.13
2023-04-16T06:17:37.247Z,101421.83
2023-04-16T06:20:06.817Z,101421.63
2023-04-16T06:22:35.144Z,101423.73
2023-04-16T06:25:03.728Z,101438.90
2023-04-16T06:27:32.367Z,101434.25
2023-04-16T06:30:01.109Z,101439.13
2023-04-16T06:32:30.437Z,101438.73
2023-04-16T06:34:59.490Z,101430.99
2023-04-16T06:37:28.090Z,101436.41
2023-04-16T06:39:56.880Z,101429.92
2023-04-16T06:42:25.456Z,101439.17
2023-04-16T06:44:54.166Z,101435.98
2023-04-16T06:47:22.728Z,101430.63
2023-04-16T06:49:51.108Z,101433.86
2023-04-16T06:52:19.583Z,101426.87
2023-04-16T06:54:48.579Z,101426.89
2023-04-16T06:57:17.157Z,101426.63
2023-04-16T06:59:46.147Z,101423.35
2023-04-16T07:02:14.657Z,101425.14
2023-04-16T07:04:43.111Z,101420.92
2023-04-16T07:07:12.364Z,101421.42
2023-04-16T07:09:42.023Z,101425.15
2023-04-16T07:12:12.350Z,101424.09
2023-04-16T07:14:41.670Z,101427.33
2023-04-16T07:17:10.234Z,101427.95
2023-04-16T07:19:39.049Z,101421.31
2023-04-16T07:22:07.506Z,101417.02
2023-04-16T07:24:36.199Z,101416.79
2023-04-16T07:27:04.819Z,101411.64
2023-04-16T07:29:33.353Z,101412.45
2023-04-16T07:32:02.276Z,101406.54
2023-04-16T07:34:31.236Z,101410.05
2023-04-16T07:36:59.919Z,101417.04
2023-04-16T07:39:28.654Z,101410.94
2023-04-16T07:41:57.325Z,101416.95
2023-04-16T07:44:26.231Z,101415.27
2023-04-16T07:46:54.707Z,101417.30
2023-04-16T07:49:23.280Z,101413.50
2023-04-16T07:51:51.736Z,101422.37
2023-04-16T07:54:21.149Z,101416.52
2023-04-16T07:56:49.877Z,101406.38
2023-04-16T07:59:23.363Z,101408.15
2023-04-16T08:01:53.409Z,101408.33
2023-04-16T08:04:25.713Z,101401.98
2023-04-16T08:06:55.020Z,101406.94
2023-04-16T08:09:26.665Z,101404.04
2023-04-16T08:11:55.042Z,101394.51
2023-04-16T08:14:23.534Z,101396.44
2023-04-16T08:16:52.626Z,101386.54
2023-04-16T08:19:21.097Z,101387.33
2023-04-16T08:21:49.751Z,101399.27
2023-04-16T08:24:18.268Z,101385.38
2023-04-16T08:26:46.766Z,101385.46
2023-04-16T08:29:15.456Z,101370.29
2023-04-16T08:31:44.330Z,101375.54
2023-04-16T08:34:13.230Z,101379.59
2023-04-16T08:36:41.915Z,101368.89
2023-04-16T08:39:10.705Z,101374.80
2023-04-16T08:41:42.412Z,101381.55
2023-04-16T08:44:17.499Z,101372.07
2023-04-16T08:46:45.935Z,101370.81
2023-04-16T08:49:18.107Z,101369.49
2023-04-16T08:51:51.401Z,101369.19
2023-04-16T08:54:56.671Z,101376.88
2023-04-16T08:57:29.250Z,101360.98
2023-04-16T08:59:57.845Z,101354.27
2023-04-16T09:02:26.442Z,101360.67
2023-04-16T09:04:55.732Z,101356.34
2023-04-16T09:07:24.296Z,101347.73
2023-04-16T09:09:53.493Z,101349.67
2023-04-16T09:12:24.214Z,101351.55
2023-04-16T09:14:53.257Z,101337.36
2023-04-16T09:17:21.714Z,101338.76
2023-04-16T09:19:50.182Z,101335.10
2023-04-16T09:22:19.036Z,101329.49
2023-04-16T09:24:47.760Z,101331.75
2023-04-16T09:27:16.854Z,101327.61
2023-04-16T09:29:46.482Z,101329.16
2023-04-16T09:32:14.919Z,101318.84
2023-04-16T09:34:56.759Z,101329.52
2023-04-16T09:37:31.707Z,101331.23
2023-04-16T09:40:04.170Z,101334.74
2023-04-16T09:42:34.312Z,101326.77
2023-04-16T09:45:05.771Z,101340.44
2023-04-16T09:47:44.523Z,101340.51
2023-04-16T09:50:18.617Z,101338.77
2023-04-16T09:52:53.528Z,101335.39
2023-04-16T09:55:23.842Z,101328.19
2023-04-16T09:58:00.434Z,101328.35
2023-04-16T10:00:30.525Z,101334.48
2023-04-16T10:03:08.401Z,101338.11
2023-04-16T10:05:37.443Z,101334.57
2023-04-16T10:08:13.682Z,101329.56
2023-04-16T10:10:42.054Z,101328.36
2023-04-16T10:13:10.901Z,101318.27
2023-04-16T10:15:39.307Z,101323.65
2023-04-16T10:18:07.819Z,101330.63
2023-04-16T10:20:37.187Z,101326.80
2023-04-16T10:23:05.606Z,101329.36
2023-04-16T10:25:34.053Z,101325.73
2023-04-16T10:28:02.735Z,101325.45
2023-04-16T10:30:31.238Z,101332.73
2023-04-16T10:33:00.638Z,101328.95
2023-04-16T10:35:30.357Z,101316.84
2023-04-16T10:38:18.584Z,101314.42
2023-04-16T10:40:47.000Z,101315.67
2023-04-16T10:43:20.245Z,101317.54
2023-04-16T10:45:49.062Z,101311.60
2023-04-16T10:48:20.588Z,101318.78
2023-04-16T10:50:57.158Z,101311.35
2023-04-16T10:53:27.278Z,101319.46
2023-04-16T10:56:04.912Z,101309.95
2023-04-16T10:58:36.026Z,101317.14
2023-04-16T11:01:12.372Z,101302.11
2023-04-16T11:03:45.091Z,101293.50
2023-04-16T11:06:16.740Z,101292.08
2023-04-16T11:08:54.712Z,101298.71
2023-04-16T11:11:24.154Z,101295.12
2023-04-16T11:13:55.822Z,101299.75
2023-04-16T11:16:24.887Z,101305.14
2023-04-16T11:18:55.003Z,101301.54
2023-04-16T11:21:24.921Z,101288.52
2023-04-16T11:23:53.533Z,101285.22
2023-04-16T11:26:28.960Z,101291.91
2023-04-16T11:28:57.739Z,101276.20
2023-04-16T11:31:27.497Z,101280.30
2023-04-16T11:33:56.942Z,101282.67
2023-04-16T11:38:28.854Z,101276.77
2023-04-16T11:39:13.931Z,101271.92
2023-04-16T11:41:46.319Z,101270.70
2023-04-16T11:44:21.785Z,101265.83
2023-04-16T11:46:51.124Z,101269.71
2023-04-16T11:49:31.767Z,101265.64
2023-04-16T11:52:00.217Z,101264.02
2023-04-16T11:54:34.964Z,101253.69
2023-04-16T11:57:04.888Z,101260.81
2023-04-16T11:59:33.663Z,101267.88
2023-04-16T12:02:02.289Z,101252.15
2023-04-16T12:04:35.089Z,101253.96
2023-04-16T12:07:14.055Z,101251.63
2023-04-16T12:09:43.770Z,101254.02
2023-04-16T12:12:26.479Z,101245.86
2023-04-16T12:14:57.093Z,101246.03
2023-04-16T12:19:30.562Z,101240.61
2023-04-16T12:22:02.158Z,101241.93
2023-04-16T12:24:32.322Z,101245.92
2023-04-16T12:27:03.427Z,101242.97
2023-04-16T12:29:32.558Z,101242.77
2023-04-16T12:32:02.091Z,101250.92
2023-04-16T12:34:48.153Z,101242.00
2023-04-16T12:37:18.266Z,101241.11
2023-04-16T12:39:47.967Z,101247.04
2023-04-16T12:42:16.920Z,101232.19
2023-04-16T12:44:45.589Z,101237.66
2023-04-16T12:47:13.967Z,101236.42
2023-04-16T12:49:42.626Z,101237.86
2023-04-16T12:52:11.226Z,101227.55
2023-04-16T12:54:39.593Z,101224.42
2023-04-16T12:57:08.068Z,101227.70
2023-04-16T12:59:36.648Z,101228.50
2023-04-16T13:02:05.786Z,101229.85
2023-04-16T13:04:34.437Z,101226.70
2023-04-16T13:07:02.994Z,101221.27
2023-04-16T13:09:31.564Z,101226.60
2023-04-16T13:11:59.938Z,101232.07
2023-04-16T13:14:28.347Z,101218.08
2023-04-16T13:16:56.826Z,101211.05
2023-04-16T13:19:25.304Z,101212.52
2023-04-16T13:21:53.862Z,101211.95
2023-04-16T13:24:23.330Z,101210.38
2023-04-16T13:26:56.529Z,101213.62
2023-04-16T13:29:24.860Z,101210.09
2023-04-16T13:31:53.333Z,101204.51
2023-04-16T13:34:22.365Z,101207.65
2023-04-16T13:36:50.942Z,101204.41
2023-04-16T13:39:19.816Z,101204.89
2023-04-16T13:41:49.413Z,101204.77
2023-04-16T13:44:17.975Z,101204.00
2023-04-16T13:46:48.043Z,101207.08
2023-04-16T13:49:16.494Z,101206.41
2023-04-16T13:51:45.004Z,101200.86
2023-04-16T13:54:13.516Z,101203.95
2023-04-16T13:56:42.141Z,101198.30
2023-04-16T13:59:10.992Z,101201.08
2023-04-16T14:01:39.864Z,101205.67
2023-04-16T14:04:08.689Z,101206.00
2023-04-16T14:06:38.047Z,101201.80
2023-04-16T14:09:07.033Z,101199.36
2023-04-16T14:11:35.599Z,101194.59
2023-04-16T14:14:04.385Z,101199.31
2023-04-16T14:16:33.304Z,101194.04
2023-04-16T14:19:01.932Z,101199.91
2023-04-16T14:21:31.394Z,101201.34
2023-04-16T14:23:59.837Z,101196.34
2023-04-16T14:26:28.384Z,101202.32
2023-04-16T14:28:56.905Z,101201.94
2023-04-16T14:31:25.961Z,101204.38
2023-04-16T14:33:54.230Z,101205.66
2023-04-16T14:36:22.878Z,101204.76
2023-04-16T14:38:51.647Z,101202.16
2023-04-16T14:41:20.539Z,101206.69
2023-04-16T14:43:49.327Z,101200.04
2023-04-16T14:46:18.295Z,101202.64
2023-04-16T14:48:47.412Z,101206.76
2023-04-16T14:51:15.997Z,101200.22
2023-04-16T14:53:44.560Z,101203.98
2023-04-16T14:56:13.780Z,101200.61
2023-04-16T14:58:43.589Z,101202.74
2023-04-16T15:01:13.736Z,101205.39
2023-04-16T15:03:43.290Z,101204.33
2023-04-16T15:06:12.003Z,101205.14
2023-04-16T15:08:40.608Z,101208.11
2023-04-16T15:11:09.108Z,101215.39
2023-04-16T15:13:38.581Z,101211.15
2023-04-16T15:16:07.302Z,101212.71
2023-04-16T15:18:36.256Z,101210.71
2023-04-16T15:21:04.591Z,101217.02
2023-04-16T15:23:33.218Z,101210.69
2023-04-16T15:26:02.005Z,101211.01
2023-04-16T15:28:30.408Z,101205.94
2023-04-16T15:30:58.941Z,101208.05
2023-04-16T15:33:27.997Z,101208.94
2023-04-16T15:35:56.464Z,101213.67
2023-04-16T15:38:24.936Z,101213.65
2023-04-16T15:40:53.606Z,101214.33
2023-04-16T15:43:22.298Z,101214.95
2023-04-16T15:45:51.429Z,101217.02
2023-04-16T15:48:20.077Z,101220.02
2023-04-16T15:50:48.562Z,101218.23
2023-04-16T15:53:17.256Z,101222.98
2023-04-16T15:55:45.622Z,101220.80
2023-04-16T15:58:15.358Z,101222.48
2023-04-16T16:00:46.740Z,101223.70
2023-04-16T16:03:17.261Z,101227.68
2023-04-16T16:05:48.815Z,101230.79
2023-04-16T16:08:18.679Z,101233.39
2023-04-16T16:10:47.595Z,101233.14
2023-04-16T16:13:18.507Z,101234.69
2023-04-16T16:15:47.036Z,101237.09
2023-04-16T16:18:15.781Z,101233.16
2023-04-16T16:20:44.204Z,101229.99
2023-04-16T16:23:13.276Z,101232.22
2023-04-16T16:25:42.765Z,101233.05
2023-04-16T16:28:11.341Z,101237.77
2023-04-16T16:30:39.740Z,101236.06
2023-04-16T16:33:09.660Z,101239.88
2023-04-16T16:35:38.319Z,101245.60
2023-04-16T16:38:06.902Z,101245.82
2023-04-16T16:40:35.426Z,101246.55
2023-04-16T16:43:04.164Z,101253.62
2023-04-16T16:45:32.888Z,101258.59
2023-04-16T16:48:01.734Z,101253.13
2023-04-16T16:50:33.231Z,101258.86
2023-04-16T16:53:02.073Z,101259.63
2023-04-16T16:55:30.470Z,101258.60
2023-04-16T16:57:59.161Z,101262.90
2023-04-16T17:00:27.744Z,101263.56
2023-04-16T17:02:56.672Z,101265.18
2023-04-16T17:05:25.401Z,101268.30
2023-04-16T17:07:54.217Z,101273.05
2023-04-16T17:10:22.649Z,101273.94
2023-04-16T17:12:51.369Z,101278.12
2023-04-16T17:15:21.805Z,101280.11
2023-04-16T17:17:51.121Z,101278.19
2023-04-16T17:20:20.074Z,101283.77
2023-04-16T17:22:48.483Z,101282.10
2023-04-16T17:25:17.318Z,101285.77
2023-04-16T17:27:46.050Z,101290.33
2023-04-16T17:30:14.506Z,101290.17
2023-04-16T17:32:43.020Z,101290.40
2023-04-16T17:35:11.432Z,101291.36
2023-04-16T17:37:39.982Z,101291.36
2023-04-16T17:40:10.158Z,101293.20
2023-04-16T17:42:38.884Z,101291.91
2023-04-16T17:45:07.850Z,101292.55
2023-04-16T17:47:37.423Z,101294.36
2023-04-16T17:50:07.342Z,101295.58
2023-04-16T17:52:38.030Z,101293.98
2023-04-16T17:55:06.818Z,101291.71
2023-04-16T17:57:35.707Z,101289.71
2023-04-16T18:00:11.369Z,101289.33
2023-04-16T18:02:42.843Z,101291.66
2023-04-16T18:05:11.748Z,101297.55
2023-04-16T18:07:40.553Z,101296.20
2023-04-16T18:10:10.002Z,101298.20
2023-04-16T18:12:38.723Z,101297.18
2023-04-16T18:15:07.994Z,101299.08
2023-04-16T18:17:36.540Z,101300.68
2023-04-16T18:20:07.268Z,101300.75
2023-04-16T18:22:36.004Z,101303.86
2023-04-16T18:25:05.420Z,101303.55
2023-04-16T18:27:34.698Z,101303.24
2023-04-16T18:30:04.395Z,101299.54
2023-04-16T18:32:33.779Z,101296.73
2023-04-16T18:35:02.388Z,101299.48
2023-04-16T18:37:31.570Z,101298.13
2023-04-16T18:39:59.925Z,101296.98
2023-04-16T18:42:28.651Z,101295.18
2023-04-16T18:44:57.250Z,101297.61
2023-04-16T18:47:25.850Z,101302.36
2023-04-16T18:49:54.390Z,101299.65
2023-04-16T18:52:22.968Z,101300.78
2023-04-16T18:54:51.678Z,101303.26
2023-04-16T18:57:20.047Z,101302.36
2023-04-16T18:59:49.041Z,101300.56
2023-04-16T19:02:17.572Z,101299.95
2023-04-16T19:04:46.602Z,101298.33
2023-04-16T19:07:15.087Z,101297.49
2023-04-16T19:09:44.492Z,101300.41
2023-04-16T19:12:12.908Z,101302.96
2023-04-16T19:14:41.559Z,101299.34
2023-04-16T19:17:10.712Z,101298.77
2023-04-16T19:19:39.438Z,101297.14
2023-04-16T19:22:07.952Z,101292.70
2023-04-16T19:24:37.154Z,101296.35
2023-04-16T19:27:05.834Z,101291.52
2023-04-16T19:29:35.027Z,101292.19
2023-04-16T19:32:03.827Z,101295.11
2023-04-16T19:34:32.620Z,101296.00
2023-04-16T19:37:01.161Z,101295.36
2023-04-16T19:39:29.775Z,101292.59
2023-04-16T19:41:58.644Z,101297.27
2023-04-16T19:44:28.000Z,101298.21
2023-04-16T19:46:56.631Z,101298.27
2023-04-16T19:49:34.618Z,101296.57
2023-04-16T19:52:03.596Z,101295.95
2023-04-16T19:54:33.943Z,101295.71
2023-04-16T19:57:02.329Z,101299.20
2023-04-16T19:59:32.462Z,101295.65
2023-04-16T20:02:01.528Z,101293.23
2023-04-16T20:04:30.167Z,101293.52
2023-04-16T20:06:58.841Z,101291.02
2023-04-16T20:09:27.301Z,101291.55
2023-04-16T20:11:55.802Z,101293.56
2023-04-16T20:14:24.176Z,101297.39
2023-04-16T20:16:52.984Z,101295.54
2023-04-16T20:19:22.242Z,101295.86
2023-04-16T20:21:50.721Z,101292.96
2023-04-16T20:24:19.203Z,101295.85
2023-04-16T20:26:47.577Z,101295.59
2023-04-16T20:29:16.018Z,101294.65
2023-04-16T20:31:46.167Z,101301.64
2023-04-16T20:34:14.969Z,101299.42
2023-04-16T20:36:43.668Z,101301.48
2023-04-16T20:39:12.750Z,101300.23
2023-04-16T20:41:44.287Z,101296.61
2023-04-16T20:44:18.388Z,101298.06
2023-04-16T20:46:50.173Z,101301.09
2023-04-16T20:49:18.857Z,101301.66
2023-04-16T20:51:47.442Z,101300.52
2023-04-16T20:54:16.029Z,101304.06
2023-04-16T20:56:45.036Z,101301.24
2023-04-16T20:59:13.641Z,101301.05
2023-04-16T21:02:01.259Z,101300.89
2023-04-16T21:04:30.313Z,101301.37
2023-04-16T21:06:59.004Z,101300.84
2023-04-16T21:09:27.404Z,101300.77
2023-04-16T21:11:56.535Z,101300.91
2023-04-16T21:14:25.108Z,101298.87
2023-04-16T21:16:53.577Z,101300.46
2023-04-16T21:19:22.668Z,101299.36
2023-04-16T21:21:50.945Z,101295.98
2023-04-16T21:24:19.337Z,101297.59
2023-04-16T21:26:47.708Z,101294.55
2023-04-16T21:29:16.280Z,101292.66
2023-04-16T21:31:44.834Z,101292.34
2023-04-16T21:34:13.509Z,101289.80
2023-04-16T21:36:41.978Z,101293.60
2023-04-16T21:39:11.643Z,101289.58
2023-04-16T21:41:40.662Z,101289.46
2023-04-16T21:44:09.089Z,101287.09
2023-04-16T21:46:37.649Z,101284.42
2023-04-16T21:49:06.410Z,101286.73
2023-04-16T21:51:35.535Z,101281.59
2023-04-16T21:54:04.374Z,101283.59
2023-04-16T21:56:32.961Z,101282.84
2023-04-16T21:59:01.539Z,101279.55
2023-04-16T22:01:30.426Z,101275.47
2023-04-16T22:03:58.956Z,101274.17
2023-04-16T22:06:27.494Z,101274.13
2023-04-16T22:08:59.249Z,101271.30
2023-04-16T22:11:28.038Z,101270.20
2023-04-16T22:13:57.981Z,101268.81
2023-04-16T22:16:26.976Z,101266.19
2023-04-16T22:18:56.810Z,101262.88
2023-04-16T22:21:26.294Z,101261.20
2023-04-16T22:23:54.666Z,101256.33
2023-04-16T22:26:23.128Z,101255.88
2023-04-16T22:28:51.812Z,101247.80
2023-04-16T22:31:20.155Z,101250.46
2023-04-16T22:33:49.139Z,101247.09
2023-04-16T22:36:17.864Z,101242.72
2023-04-16T22:38:46.905Z,101240.70
2023-04-16T22:41:15.656Z,101241.48
2023-04-16T22:43:43.926Z,101232.73
2023-04-16T22:46:12.504Z,101228.82
2023-04-16T22:48:41.084Z,101230.05
2023-04-16T22:51:09.571Z,101228.55
2023-04-16T22:53:38.318Z,101226.78
2023-04-16T22:56:07.214Z,101230.40
2023-04-16T22:58:36.141Z,101226.11
2023-04-16T23:01:04.542Z,101232.19
2023-04-16T23:03:34.002Z,101229.33
2023-04-16T23:06:04.242Z,101228.48
2023-04-16T23:08:32.992Z,101227.91
2023-04-16T23:11:01.870Z,101230.71
2023-04-16T23:13:30.589Z,101230.80
2023-04-16T23:15:59.133Z,101230.55
2023-04-16T23:18:27.696Z,101227.61
2023-04-16T23:20:56.378Z,101229.14
2023-04-16T23:23:24.951Z,101227.13
2023-04-16T23:25:56.187Z,101228.06
2023-04-16T23:28:25.195Z,101228.22
2023-04-16T23:30:53.696Z,101224.48
2023-04-16T23:33:23.475Z,101223.65
2023-04-16T23:35:51.961Z,101218.77
2023-04-16T23:38:20.454Z,101220.00
2023-04-16T23:40:48.919Z,101218.11
2023-04-16T23:43:18.228Z,101216.96
2023-04-16T23:45:46.837Z,101218.68
2023-04-16T23:48:15.844Z,101217.39
2023-04-16T23:50:44.200Z,101216.23
2023-04-16T23:53:12.894Z,101216.66
2023-04-16T23:55:41.343Z,101216.70
2023-04-16T23:58:10.232Z,101219.42
